| time (UTC) | temp C | wind direction | speed KPH | gust KPH | rain 1hr cm | rain 24hr cm | rain mn cm | humidity % | barometer mb |
| 20260906231532 | 22 | 233 | 11.3 | 22.5 | 0.00 | 0.00 | 0.00 | 27 | 1015.7 |
| 20260906230033 | 23 | 255 | 16.1 | 27.4 | 0.00 | 0.00 | 0.00 | 27 | 1015.7 |
| 20260906224531 | 23 | 241 | 25.7 | 32.2 | 0.00 | 0.00 | 0.00 | 26 | 1015.8 |
| 20260906223040 | 24 | 215 | 14.5 | 29.0 | 0.00 | 0.00 | 0.00 | 26 | 1015.6 |
| 20260906221530 | 25 | 212 | 24.1 | 32.2 | 0.00 | 0.00 | 0.00 | 22 | 1015.5 |
| 20260906220029 | 25 | 200 | 30.6 | 37.0 | 0.00 | 0.00 | 0.00 | 22 | 1015.6 |
| 20260906214536 | 25 | 191 | 29.0 | 41.8 | 0.00 | 0.00 | 0.00 | 20 | 1015.5 |
| 20260906213027 | 25 | 149 | 25.7 | 46.7 | 0.00 | 0.00 | 0.00 | 21 | 1015.5 |
| 20260906211538 | 25 | 149 | 24.1 | 35.4 | 0.00 | 0.00 | 0.00 | 23 | 1015.9 |
| 20260906210026 | 25 | 139 | 32.2 | 43.5 | 0.00 | 0.00 | 0.00 | 21 | 1016.0 |
| 20260906204529 | 25 | 148 | 29.0 | 45.1 | 0.00 | 0.00 | 0.00 | 22 | 1016.2 |
| 20260906203023 | 25 | 155 | 20.9 | 33.8 | 0.00 | 0.00 | 0.00 | 22 | 1016.3 |
| 20260906201521 | 25 | 142 | 17.7 | 35.4 | 0.00 | 0.00 | 0.00 | 22 | 1016.3 |
| 20260906200036 | 25 | 154 | 20.9 | 32.2 | 0.00 | 0.00 | 0.00 | 21 | 1016.7 |
| 20260906194517 | 25 | 156 | 22.5 | 33.8 | 0.00 | 0.00 | 0.00 | 21 | 1016.6 |
| 20260906193015 | 25 | 158 | 24.1 | 37.0 | 0.00 | 0.00 | 0.00 | 19 | 1016.7 |
| 20260906191516 | 24 | 146 | 22.5 | 43.5 | 0.00 | 0.00 | 0.00 | 20 | 1017.1 |
| 20260906190009 | 24 | 146 | 19.3 | 35.4 | 0.00 | 0.00 | 0.00 | 19 | 1017.4 |
| 20260906184506 | 24 | 137 | 22.5 | 33.8 | 0.00 | 0.00 | 0.00 | 21 | 1017.7 |
| 20260906183004 | 23 | 127 | 22.5 | 40.2 | 0.00 | 0.00 | 0.00 | 22 | 1017.9 |
| 20260906181506 | 23 | 158 | 19.3 | 37.0 | 0.00 | 0.00 | 0.00 | 23 | 1018.2 |
| 20260906174558 | 23 | 137 | 19.3 | 33.8 | 0.00 | 0.00 | 0.00 | 24 | 1018.7 |
| 20260906173054 | 22 | 146 | 14.5 | 27.4 | 0.00 | 0.00 | 0.00 | 29 | 1018.8 |
| 20260906171603 | 21 | 209 | 14.5 | 19.3 | 0.00 | 0.00 | 0.00 | 34 | 1019.1 |
| 20260906170055 | 19 | 184 | 1.6 | 6.4 | 0.00 | 0.00 | 0.00 | 39 | 1019.2 |
| 20260906164544 | 17 | 262 | 4.8 | 8.0 | 0.00 | 0.00 | 0.00 | 41 | 1019.5 |
| 20260906163036 | 16 | 292 | 3.2 | 8.0 | 0.00 | 0.00 | 0.00 | 43 | 1019.6 |
| 20260906161533 | 16 | 278 | 4.8 | 8.0 | 0.00 | 0.00 | 0.00 | 44 | 1019.8 |
| 20260906160031 | 15 | 278 | 0.0 | 4.8 | 0.00 | 0.00 | 0.00 | 44 | 1019.9 |
| 20260906154538 | 15 | 152 | 0.0 | 1.6 | 0.00 | 0.00 | 0.00 | 47 | 1020.0 |
| 20260906153031 | 13 | 277 | 0.0 | 1.6 | 0.00 | 0.00 | 0.00 | 51 | 1020.2 |
| 20260906151527 | 11 | 284 | 0.0 | 4.8 | 0.00 | 0.00 | 0.00 | 59 | 1020.2 |
| 20260906150027 | 11 | 257 | 0.0 | 3.2 | 0.00 | 0.00 | 0.00 | 58 | 1020.3 |
| 20260906144526 | 11 | 226 | 0.0 | 1.6 | 0.00 | 0.00 | 0.00 | 57 | 1020.4 |
| 20260906143024 | 10 | 149 | 0.0 | 1.6 | 0.00 | 0.00 | 0.00 | 59 | 1020.3 |
| 20260906141530 | 7 | 136 | 0.0 | 3.2 | 0.00 | 0.00 | 0.00 | 65 | 1020.4 |
| 20260906140022 | 7 | 141 | 0.0 | 1.6 | 0.00 | 0.00 | 0.00 | 66 | 1020.2 |
| 20260906134528 | 7 | 121 | 0.0 | 1.6 | 0.00 | 0.00 | 0.00 | 65 | 1020.1 |
| 20260906133019 | 7 | 117 | 1.6 | 3.2 | 0.00 | 0.00 | 0.00 | 66 | 1020.1 |
| 20260906131517 | 6 | 82 | 0.0 | 4.8 | 0.00 | 0.00 | 0.00 | 67 | 1019.8 |
| 20260906130014 | 7 | 149 | 0.0 | 0.0 | 0.00 | 0.00 | 0.00 | 65 | 1020.0 |
| 20260906124512 | 7 | 97 | 0.0 | 1.6 | 0.00 | 0.00 | 0.00 | 65 | 1019.7 |
| 20260906123011 | 8 | 274 | 0.0 | 1.6 | 0.00 | 0.00 | 0.00 | 62 | 1019.6 |
| 20260906121509 | 7 | 89 | 1.6 | 3.2 | 0.00 | 0.00 | 0.00 | 66 | 1019.6 |
| 20260906120006 | 7 | 113 | 0.0 | 0.0 | 0.00 | 0.00 | 0.00 | 66 | 1019.6 |
| 20260906114506 | 8 | 246 | 0.0 | 3.2 | 0.00 | 0.00 | 0.00 | 62 | 1019.5 |
| 20260906113001 | 9 | 48 | 0.0 | 4.8 | 0.00 | 0.00 | 0.00 | 58 | 1019.4 |
| 20260906111601 | 9 | 63 | 0.0 | 0.0 | 0.00 | 0.00 | 0.00 | 58 | 1019.5 |
| 20260906110059 | 8 | 94 | 0.0 | 0.0 | 0.00 | 0.00 | 0.00 | 61 | 1019.4 |
| 20260906104603 | 10 | 100 | 0.0 | 0.0 | 0.00 | 0.00 | 0.00 | 57 | 1019.3 |
| 20260906103055 | 10 | 60 | 0.0 | 0.0 | 0.00 | 0.00 | 0.00 | 56 | 1019.1 |
| 20260906101555 | 10 | 34 | 0.0 | 0.0 | 0.00 | 0.00 | 0.00 | 57 | 1019.0 |
| 20260906100053 | 10 | 35 | 0.0 | 0.0 | 0.00 | 0.00 | 0.00 | 58 | 1019.0 |
| 20260906094607 | 10 | 1 | 0.0 | 0.0 | 0.00 | 0.00 | 0.00 | 58 | 1019.1 |
| 20260906093119 | 10 | 58 | 0.0 | 0.0 | 0.00 | 0.00 | 0.00 | 59 | 1018.9 |
| 20260906091548 | 10 | 258 | 0.0 | 0.0 | 0.00 | 0.00 | 0.00 | 57 | 1018.9 |
| 20260906090045 | 10 | 248 | 0.0 | 0.0 | 0.00 | 0.00 | 0.00 | 55 | 1018.9 |
| 20260906084543 | 11 | 77 | 0.0 | 3.2 | 0.00 | 0.00 | 0.00 | 53 | 1018.8 |
| 20260906083047 | 11 | 122 | 1.6 | 3.2 | 0.00 | 0.00 | 0.00 | 53 | 1018.8 |
| 20260906081541 | 12 | 30 | 0.0 | 1.6 | 0.00 | 0.00 | 0.00 | 48 | 1018.8 |
| 20260906080043 | 11 | 48 | 1.6 | 4.8 | 0.00 | 0.00 | 0.00 | 50 | 1018.8 |
| 20260906074541 | 11 | 146 | 0.0 | 1.6 | 0.00 | 0.00 | 0.00 | 51 | 1018.8 |
| 20260906073039 | 11 | 108 | 0.0 | 1.6 | 0.00 | 0.00 | 0.00 | 52 | 1018.8 |
| 20260906071539 | 11 | 149 | 1.6 | 3.2 | 0.00 | 0.00 | 0.00 | 52 | 1018.8 |
| 20260906070034 | 11 | 127 | 1.6 | 4.8 | 0.00 | 0.00 | 0.00 | 53 | 1018.8 |
| 20260906064530 | 13 | 186 | 4.8 | 6.4 | 0.00 | 0.00 | 0.00 | 46 | 1018.7 |
| 20260906063031 | 15 | 138 | 3.2 | 6.4 | 0.00 | 0.00 | 0.00 | 40 | 1018.8 |
| 20260906061529 | 15 | 101 | 1.6 | 4.8 | 0.00 | 0.00 | 0.00 | 41 | 1018.8 |
| 20260906060022 | 13 | 95 | 3.2 | 4.8 | 0.00 | 0.00 | 0.00 | 45 | 1018.9 |
| 20260906054521 | 12 | 58 | 0.0 | 3.2 | 0.00 | 0.00 | 0.00 | 48 | 1019.0 |
| 20260906053020 | 13 | 266 | 0.0 | 3.2 | 0.00 | 0.00 | 0.00 | 46 | 1018.9 |
| 20260906051519 | 13 | 142 | 0.0 | 6.4 | 0.00 | 0.00 | 0.00 | 45 | 1019.0 |
| 20260906050020 | 15 | 197 | 3.2 | 4.8 | 0.00 | 0.00 | 0.00 | 41 | 1019.2 |
| 20260906044519 | 16 | 184 | 1.6 | 6.4 | 0.00 | 0.00 | 0.00 | 39 | 1019.3 |
| 20260906043020 | 15 | 157 | 1.6 | 6.4 | 0.00 | 0.00 | 0.00 | 40 | 1019.3 |
| 20260906041518 | 16 | 149 | 4.8 | 9.7 | 0.00 | 0.00 | 0.00 | 37 | 1019.2 |
| 20260906040024 | 17 | 107 | 1.6 | 6.4 | 0.00 | 0.00 | 0.00 | 35 | 1019.0 |
| 20260906034517 | 18 | 53 | 4.8 | 9.7 | 0.00 | 0.00 | 0.00 | 29 | 1019.1 |
| 20260906033017 | 18 | 91 | 4.8 | 12.9 | 0.00 | 0.00 | 0.00 | 28 | 1019.0 |
| 20260906031516 | 18 | 76 | 8.0 | 14.5 | 0.00 | 0.00 | 0.00 | 30 | 1018.9 |
| 20260906030015 | 20 | 63 | 6.4 | 11.3 | 0.00 | 0.00 | 0.00 | 27 | 1018.8 |
| 20260906024531 | 20 | 72 | 3.2 | 12.9 | 0.00 | 0.00 | 0.00 | 25 | 1018.7 |
| 20260906023019 | 20 | 66 | 11.3 | 12.9 | 0.00 | 0.00 | 0.00 | 28 | 1018.4 |
| 20260906021513 | 20 | 62 | 6.4 | 11.3 | 0.00 | 0.00 | 0.00 | 28 | 1018.3 |
| 20260906020012 | 21 | 60 | 6.4 | 8.0 | 0.00 | 0.00 | 0.00 | 23 | 1018.1 |
| 20260906014517 | 23 | 59 | 0.0 | 1.6 | 0.00 | 0.00 | 0.00 | 22 | 1018.0 |
| 20260906013032 | 24 | 280 | 6.4 | 14.5 | 0.00 | 0.00 | 0.00 | 20 | 1017.8 |
| 20260906011510 | 26 | 300 | 0.0 | 0.0 | 0.00 | 0.00 | 0.00 | 20 | 1017.7 |
| 20260906010008 | 25 | 228 | 8.0 | 11.3 | 0.00 | 0.00 | 0.00 | 19 | 1017.8 |
| 20260906004508 | 25 | 283 | 8.0 | 11.3 | 0.00 | 0.00 | 0.00 | 21 | 1017.7 |
| 20260906003007 | 25 | 273 | 9.7 | 19.3 | 0.00 | 0.00 | 0.00 | 20 | 1017.6 |
| 20260906001505 | 25 | 262 | 14.5 | 24.1 | 0.00 | 0.00 | 0.00 | 20 | 1017.6 |
| 20260906000006 | 25 | 283 | 17.7 | 27.4 | 0.00 | 0.00 | 0.00 | 18 | 1017.6 |
| 20260905234505 | 25 | 236 | 16.1 | 25.7 | 0.00 | 0.00 | 0.00 | 18 | 1017.7 |
| 20260905233004 | 26 | 266 | 12.9 | 30.6 | 0.00 | 0.00 | 0.00 | 19 | 1017.5 |